sensor_id;sensor_type;location;lat;lon;timestamp;pressure;altitude;pressure_sealevel;temperature;humidity
61436;BME280;47304;47.456;19.160;2023-08-31T00:01:06;99523.89;;;16.52;75.66
61436;BME280;47304;47.456;19.160;2023-08-31T00:03:33;99524.48;;;16.50;75.54
61436;BME280;47304;47.456;19.160;2023-08-31T00:06:02;99524.70;;;16.49;75.56
61436;BME280;47304;47.456;19.160;2023-08-31T00:08:28;99521.96;;;16.47;75.71
61436;BME280;47304;47.456;19.160;2023-08-31T00:10:56;99519.02;;;16.45;75.82
61436;BME280;47304;47.456;19.160;2023-08-31T00:13:23;99517.81;;;16.45;75.79
61436;BME280;47304;47.456;19.160;2023-08-31T00:15:49;99518.90;;;16.44;75.78
61436;BME280;47304;47.456;19.160;2023-08-31T00:18:16;99518.89;;;16.44;75.77
61436;BME280;47304;47.456;19.160;2023-08-31T00:20:42;99518.88;;;16.44;75.87
61436;BME280;47304;47.456;19.160;2023-08-31T00:23:09;99520.27;;;16.45;75.92
61436;BME280;47304;47.456;19.160;2023-08-31T00:25:36;99524.85;;;16.45;75.92
61436;BME280;47304;47.456;19.160;2023-08-31T00:30:50;99523.92;;;16.46;75.86
61436;BME280;47304;47.456;19.160;2023-08-31T00:33:17;99524.98;;;16.42;76.03
61436;BME280;47304;47.456;19.160;2023-08-31T00:35:43;99524.68;;;16.41;75.98
61436;BME280;47304;47.456;19.160;2023-08-31T00:38:10;99523.72;;;16.38;76.02
61436;BME280;47304;47.456;19.160;2023-08-31T00:40:40;99523.48;;;16.34;76.19
61436;BME280;47304;47.456;19.160;2023-08-31T00:43:07;99528.02;;;16.32;76.15
61436;BME280;47304;47.456;19.160;2023-08-31T00:45:34;99534.78;;;16.30;76.27
61436;BME280;47304;47.456;19.160;2023-08-31T00:48:00;99535.02;;;16.29;76.39
61436;BME280;47304;47.456;19.160;2023-08-31T00:50:27;99528.38;;;16.27;76.39
61436;BME280;47304;47.456;19.160;2023-08-31T00:52:54;99525.81;;;16.25;76.45
61436;BME280;47304;47.456;19.160;2023-08-31T00:55:20;99528.23;;;16.21;76.62
61436;BME280;47304;47.456;19.160;2023-08-31T00:57:47;99526.56;;;16.18;76.85
61436;BME280;47304;47.456;19.160;2023-08-31T01:00:14;99524.97;;;16.18;76.81
61436;BME280;47304;47.456;19.160;2023-08-31T01:02:59;99529.92;;;16.18;76.70
61436;BME280;47304;47.456;19.160;2023-08-31T01:05:48;99536.13;;;16.18;76.84
61436;BME280;47304;47.456;19.160;2023-08-31T01:08:40;99538.56;;;16.19;76.84
61436;BME280;47304;47.456;19.160;2023-08-31T01:13:56;99543.30;;;16.20;76.70
61436;BME280;47304;47.456;19.160;2023-08-31T01:16:26;99549.14;;;16.19;76.71
61436;BME280;47304;47.456;19.160;2023-08-31T01:18:54;99548.66;;;16.18;76.78
61436;BME280;47304;47.456;19.160;2023-08-31T01:21:25;99552.08;;;16.16;76.84
61436;BME280;47304;47.456;19.160;2023-08-31T01:23:57;99550.89;;;16.15;76.81
61436;BME280;47304;47.456;19.160;2023-08-31T01:26:24;99551.06;;;16.15;77.00
61436;BME280;47304;47.456;19.160;2023-08-31T01:28:52;99548.95;;;16.15;77.01
61436;BME280;47304;47.456;19.160;2023-08-31T01:31:19;99549.33;;;16.14;76.96
61436;BME280;47304;47.456;19.160;2023-08-31T01:33:45;99553.80;;;16.13;76.82
61436;BME280;47304;47.456;19.160;2023-08-31T01:36:28;99557.88;;;16.12;76.71
61436;BME280;47304;47.456;19.160;2023-08-31T01:39:52;99562.84;;;16.12;76.73
61436;BME280;47304;47.456;19.160;2023-08-31T01:41:55;99556.81;;;16.12;76.59
61436;BME280;47304;47.456;19.160;2023-08-31T01:44:23;99552.55;;;16.13;76.39
61436;BME280;47304;47.456;19.160;2023-08-31T01:46:52;99550.59;;;16.14;76.41
61436;BME280;47304;47.456;19.160;2023-08-31T01:49:20;99551.91;;;16.16;76.21
61436;BME280;47304;47.456;19.160;2023-08-31T01:51:47;99549.89;;;16.18;76.16
61436;BME280;47304;47.456;19.160;2023-08-31T01:54:13;99547.50;;;16.20;75.97
61436;BME280;47304;47.456;19.160;2023-08-31T01:56:40;99549.90;;;16.23;75.85
61436;BME280;47304;47.456;19.160;2023-08-31T01:59:06;99550.36;;;16.25;75.79
61436;BME280;47304;47.456;19.160;2023-08-31T02:01:33;99549.92;;;16.27;75.70
61436;BME280;47304;47.456;19.160;2023-08-31T02:03:59;99546.51;;;16.29;75.60
61436;BME280;47304;47.456;19.160;2023-08-31T02:06:26;99547.15;;;16.30;75.43
61436;BME280;47304;47.456;19.160;2023-08-31T02:08:52;99546.77;;;16.31;75.40
61436;BME280;47304;47.456;19.160;2023-08-31T02:11:19;99548.70;;;16.32;75.41
61436;BME280;47304;47.456;19.160;2023-08-31T02:13:45;99555.54;;;16.33;75.28
61436;BME280;47304;47.456;19.160;2023-08-31T02:16:12;99559.39;;;16.34;75.02
61436;BME280;47304;47.456;19.160;2023-08-31T02:18:38;99560.48;;;16.33;74.63
61436;BME280;47304;47.456;19.160;2023-08-31T02:21:05;99563.47;;;16.33;74.77
61436;BME280;47304;47.456;19.160;2023-08-31T02:23:31;99560.98;;;16.34;74.69
61436;BME280;47304;47.456;19.160;2023-08-31T02:25:58;99561.67;;;16.34;74.56
61436;BME280;47304;47.456;19.160;2023-08-31T02:28:24;99562.52;;;16.34;74.71
61436;BME280;47304;47.456;19.160;2023-08-31T02:30:58;99562.35;;;16.35;74.57
61436;BME280;47304;47.456;19.160;2023-08-31T02:33:25;99566.23;;;16.35;74.53
61436;BME280;47304;47.456;19.160;2023-08-31T02:35:54;99564.15;;;16.34;74.16
61436;BME280;47304;47.456;19.160;2023-08-31T02:38:21;99564.42;;;16.32;74.31
61436;BME280;47304;47.456;19.160;2023-08-31T02:40:47;99565.05;;;16.29;74.23
61436;BME280;47304;47.456;19.160;2023-08-31T02:43:15;99566.34;;;16.28;74.16
61436;BME280;47304;47.456;19.160;2023-08-31T02:45:41;99565.30;;;16.27;74.16
61436;BME280;47304;47.456;19.160;2023-08-31T02:48:08;99571.95;;;16.29;74.18
61436;BME280;47304;47.456;19.160;2023-08-31T02:50:35;99576.35;;;16.29;74.30
61436;BME280;47304;47.456;19.160;2023-08-31T02:53:02;99577.02;;;16.30;74.28
61436;BME280;47304;47.456;19.160;2023-08-31T02:55:28;99582.02;;;16.29;74.20
61436;BME280;47304;47.456;19.160;2023-08-31T02:57:55;99584.02;;;16.27;74.31
61436;BME280;47304;47.456;19.160;2023-08-31T03:00:21;99583.33;;;16.27;74.43
61436;BME280;47304;47.456;19.160;2023-08-31T03:02:48;99582.80;;;16.27;74.34
61436;BME280;47304;47.456;19.160;2023-08-31T03:05:15;99576.98;;;16.26;74.30
61436;BME280;47304;47.456;19.160;2023-08-31T03:07:41;99572.74;;;16.26;74.35
61436;BME280;47304;47.456;19.160;2023-08-31T03:10:08;99572.72;;;16.27;74.34
61436;BME280;47304;47.456;19.160;2023-08-31T03:12:35;99570.02;;;16.29;74.31
61436;BME280;47304;47.456;19.160;2023-08-31T03:15:02;99564.67;;;16.29;74.42
61436;BME280;47304;47.456;19.160;2023-08-31T03:17:28;99564.45;;;16.31;74.43
61436;BME280;47304;47.456;19.160;2023-08-31T03:19:55;99567.23;;;16.32;74.44
61436;BME280;47304;47.456;19.160;2023-08-31T03:22:21;99568.28;;;16.32;74.30
61436;BME280;47304;47.456;19.160;2023-08-31T03:24:48;99571.09;;;16.33;74.25
61436;BME280;47304;47.456;19.160;2023-08-31T03:30:10;99575.67;;;16.33;74.08
61436;BME280;47304;47.456;19.160;2023-08-31T04:31:06;99617.30;;;16.00;74.18
61436;BME280;47304;47.456;19.160;2023-08-31T04:33:37;99619.12;;;15.99;74.18
61436;BME280;47304;47.456;19.160;2023-08-31T04:36:04;99622.79;;;16.00;74.32
61436;BME280;47304;47.456;19.160;2023-08-31T04:38:32;99628.36;;;16.02;74.26
61436;BME280;47304;47.456;19.160;2023-08-31T04:40:59;99634.14;;;16.04;74.25
61436;BME280;47304;47.456;19.160;2023-08-31T04:43:26;99637.59;;;16.06;74.27
61436;BME280;47304;47.456;19.160;2023-08-31T04:45:53;99641.41;;;16.08;74.42
61436;BME280;47304;47.456;19.160;2023-08-31T04:48:21;99642.88;;;16.12;74.26
61436;BME280;47304;47.456;19.160;2023-08-31T04:50:47;99645.77;;;16.16;74.29
61436;BME280;47304;47.456;19.160;2023-08-31T04:53:14;99647.19;;;16.20;74.52
61436;BME280;47304;47.456;19.160;2023-08-31T04:55:41;99652.88;;;16.24;74.41
61436;BME280;47304;47.456;19.160;2023-08-31T04:58:08;99656.64;;;16.28;74.32
61436;BME280;47304;47.456;19.160;2023-08-31T05:00:34;99659.99;;;16.32;74.19
61436;BME280;47304;47.456;19.160;2023-08-31T05:03:01;99660.40;;;16.36;74.06
61436;BME280;47304;47.456;19.160;2023-08-31T05:05:27;99662.59;;;16.39;73.77
61436;BME280;47304;47.456;19.160;2023-08-31T05:07:54;99664.20;;;16.43;73.87
61436;BME280;47304;47.456;19.160;2023-08-31T05:10:20;99663.77;;;16.46;73.74
61436;BME280;47304;47.456;19.160;2023-08-31T05:12:47;99665.45;;;16.48;73.65
61436;BME280;47304;47.456;19.160;2023-08-31T05:15:13;99674.23;;;16.49;73.44
61436;BME280;47304;47.456;19.160;2023-08-31T05:17:40;99673.82;;;16.51;73.57
61436;BME280;47304;47.456;19.160;2023-08-31T05:20:07;99679.92;;;16.54;73.76
61436;BME280;47304;47.456;19.160;2023-08-31T05:22:34;99682.42;;;16.58;73.48
61436;BME280;47304;47.456;19.160;2023-08-31T05:25:01;99684.73;;;16.63;73.50
61436;BME280;47304;47.456;19.160;2023-08-31T05:29:52;99697.34;;;16.76;73.10
61436;BME280;47304;47.456;19.160;2023-08-31T05:32:19;99698.84;;;16.78;72.89
61436;BME280;47304;47.456;19.160;2023-08-31T05:34:45;99700.54;;;16.81;72.46
61436;BME280;47304;47.456;19.160;2023-08-31T05:37:12;99700.29;;;16.83;72.46
61436;BME280;47304;47.456;19.160;2023-08-31T05:39:38;99700.13;;;16.87;72.59
61436;BME280;47304;47.456;19.160;2023-08-31T05:42:05;99703.17;;;16.90;71.96
61436;BME280;47304;47.456;19.160;2023-08-31T05:44:31;99702.00;;;16.94;71.07
61436;BME280;47304;47.456;19.160;2023-08-31T05:46:58;99703.20;;;17.00;70.86
61436;BME280;47304;47.456;19.160;2023-08-31T05:49:24;99704.52;;;17.07;70.62
61436;BME280;47304;47.456;19.160;2023-08-31T05:51:51;99707.58;;;17.16;69.89
61436;BME280;47304;47.456;19.160;2023-08-31T05:54:17;99709.08;;;17.23;69.47
61436;BME280;47304;47.456;19.160;2023-08-31T05:56:44;99713.40;;;17.30;69.03
61436;BME280;47304;47.456;19.160;2023-08-31T05:59:10;99716.52;;;17.36;68.70
61436;BME280;47304;47.456;19.160;2023-08-31T06:01:37;99716.31;;;17.41;68.45
61436;BME280;47304;47.456;19.160;2023-08-31T06:04:03;99723.02;;;17.47;68.82
61436;BME280;47304;47.456;19.160;2023-08-31T06:06:30;99726.02;;;17.52;68.55
61436;BME280;47304;47.456;19.160;2023-08-31T06:08:57;99728.40;;;17.54;67.43
61436;BME280;47304;47.456;19.160;2023-08-31T06:11:23;99730.98;;;17.56;66.92
61436;BME280;47304;47.456;19.160;2023-08-31T06:13:50;99733.90;;;17.58;66.55
61436;BME280;47304;47.456;19.160;2023-08-31T06:16:17;99733.04;;;17.62;66.20
61436;BME280;47304;47.456;19.160;2023-08-31T06:18:43;99733.56;;;17.67;66.19
61436;BME280;47304;47.456;19.160;2023-08-31T06:21:10;99733.39;;;17.71;66.16
61436;BME280;47304;47.456;19.160;2023-08-31T06:23:36;99734.61;;;17.76;66.02
61436;BME280;47304;47.456;19.160;2023-08-31T06:29:26;99736.92;;;17.85;65.49
61436;BME280;47304;47.456;19.160;2023-08-31T06:31:52;99742.20;;;17.86;65.52
61436;BME280;47304;47.456;19.160;2023-08-31T06:34:19;99743.98;;;17.90;65.34
61436;BME280;47304;47.456;19.160;2023-08-31T06:36:46;99749.17;;;17.93;65.04
61436;BME280;47304;47.456;19.160;2023-08-31T06:39:12;99751.00;;;17.97;65.33
61436;BME280;47304;47.456;19.160;2023-08-31T06:41:39;99752.89;;;18.03;65.10
61436;BME280;47304;47.456;19.160;2023-08-31T06:44:06;99753.45;;;18.15;65.19
61436;BME280;47304;47.456;19.160;2023-08-31T06:46:32;99752.13;;;18.30;64.78
61436;BME280;47304;47.456;19.160;2023-08-31T06:48:59;99751.61;;;18.42;64.75
61436;BME280;47304;47.456;19.160;2023-08-31T06:51:26;99754.68;;;18.53;64.25
61436;BME280;47304;47.456;19.160;2023-08-31T06:53:53;99752.88;;;18.62;63.56
61436;BME280;47304;47.456;19.160;2023-08-31T06:56:20;99751.10;;;18.70;63.13
61436;BME280;47304;47.456;19.160;2023-08-31T06:58:46;99752.48;;;18.83;63.37
61436;BME280;47304;47.456;19.160;2023-08-31T07:01:13;99753.64;;;18.93;63.13
61436;BME280;47304;47.456;19.160;2023-08-31T07:03:40;99755.58;;;19.02;62.41
61436;BME280;47304;47.456;19.160;2023-08-31T07:06:07;99760.86;;;19.11;62.56
61436;BME280;47304;47.456;19.160;2023-08-31T07:29:44;99786.11;;;19.57;59.93
61436;BME280;47304;47.456;19.160;2023-08-31T07:32:11;99786.30;;;19.56;60.00
61436;BME280;47304;47.456;19.160;2023-08-31T07:34:37;99790.65;;;19.58;60.03
61436;BME280;47304;47.456;19.160;2023-08-31T07:37:04;99797.63;;;19.61;59.90
61436;BME280;47304;47.456;19.160;2023-08-31T07:39:31;99801.86;;;19.66;59.60
61436;BME280;47304;47.456;19.160;2023-08-31T07:41:57;99803.70;;;19.68;59.26
61436;BME280;47304;47.456;19.160;2023-08-31T07:44:24;99801.23;;;19.72;59.18
61436;BME280;47304;47.456;19.160;2023-08-31T07:46:51;99803.74;;;19.78;59.34
61436;BME280;47304;47.456;19.160;2023-08-31T07:49:17;99809.08;;;19.87;59.38
61436;BME280;47304;47.456;19.160;2023-08-31T07:51:44;99811.15;;;19.91;58.60
61436;BME280;47304;47.456;19.160;2023-08-31T07:54:11;99812.68;;;19.97;58.23
61436;BME280;47304;47.456;19.160;2023-08-31T07:56:37;99812.10;;;20.05;58.13
61436;BME280;47304;47.456;19.160;2023-08-31T07:59:04;99809.55;;;20.14;58.25
61436;BME280;47304;47.456;19.160;2023-08-31T08:01:30;99804.89;;;20.25;58.06
61436;BME280;47304;47.456;19.160;2023-08-31T08:03:57;99802.17;;;20.41;57.99
61436;BME280;47304;47.456;19.160;2023-08-31T08:06:24;99807.25;;;20.53;57.36
61436;BME280;47304;47.456;19.160;2023-08-31T08:08:51;99807.10;;;20.63;56.70
61436;BME280;47304;47.456;19.160;2023-08-31T08:11:17;99810.03;;;20.76;56.70
61436;BME280;47304;47.456;19.160;2023-08-31T08:13:44;99811.05;;;20.91;56.31
61436;BME280;47304;47.456;19.160;2023-08-31T08:16:10;99817.45;;;21.01;55.40
61436;BME280;47304;47.456;19.160;2023-08-31T08:18:37;99816.52;;;21.09;54.86
61436;BME280;47304;47.456;19.160;2023-08-31T08:21:04;99820.44;;;21.12;54.93
61436;BME280;47304;47.456;19.160;2023-08-31T08:23:30;99822.29;;;21.17;54.42
61436;BME280;47304;47.456;19.160;2023-08-31T08:25:57;99823.20;;;21.24;53.97
61436;BME280;47304;47.456;19.160;2023-08-31T08:28:23;99825.83;;;21.31;53.66
61436;BME280;47304;47.456;19.160;2023-08-31T08:30:50;99824.73;;;21.39;53.09
61436;BME280;47304;47.456;19.160;2023-08-31T08:33:17;99826.44;;;21.47;53.52
61436;BME280;47304;47.456;19.160;2023-08-31T08:35:43;99823.66;;;21.55;53.62
61436;BME280;47304;47.456;19.160;2023-08-31T08:38:11;99826.09;;;21.60;52.55
61436;BME280;47304;47.456;19.160;2023-08-31T08:40:37;99829.20;;;21.65;52.22
61436;BME280;47304;47.456;19.160;2023-08-31T08:43:06;99837.23;;;21.72;52.22
61436;BME280;47304;47.456;19.160;2023-08-31T08:45:37;99839.67;;;21.79;51.09
61436;BME280;47304;47.456;19.160;2023-08-31T08:48:05;99839.73;;;21.81;50.63
61436;BME280;47304;47.456;19.160;2023-08-31T08:50:33;99842.39;;;21.81;50.95
61436;BME280;47304;47.456;19.160;2023-08-31T08:53:01;99843.94;;;21.83;51.01
61436;BME280;47304;47.456;19.160;2023-08-31T08:55:28;99841.27;;;21.86;50.91
61436;BME280;47304;47.456;19.160;2023-08-31T08:57:55;99845.83;;;21.90;50.95
61436;BME280;47304;47.456;19.160;2023-08-31T09:00:22;99848.15;;;21.94;51.24
61436;BME280;47304;47.456;19.160;2023-08-31T09:02:49;99852.64;;;21.96;51.58
61436;BME280;47304;47.456;19.160;2023-08-31T09:05:16;99859.51;;;22.01;51.49
61436;BME280;47304;47.456;19.160;2023-08-31T09:08:08;99859.45;;;22.11;51.74
61436;BME280;47304;47.456;19.160;2023-08-31T09:10:44;99859.52;;;22.26;51.97
61436;BME280;47304;47.456;19.160;2023-08-31T09:13:13;99857.89;;;22.36;50.84
61436;BME280;47304;47.456;19.160;2023-08-31T09:15:42;99866.82;;;22.42;50.78
61436;BME280;47304;47.456;19.160;2023-08-31T09:18:27;99869.73;;;22.48;50.54
61436;BME280;47304;47.456;19.160;2023-08-31T09:20:55;99869.89;;;22.57;50.19
61436;BME280;47304;47.456;19.160;2023-08-31T09:23:22;99866.16;;;22.69;50.18
61436;BME280;47304;47.456;19.160;2023-08-31T09:25:51;99867.87;;;22.82;49.56
61436;BME280;47304;47.456;19.160;2023-08-31T09:31:07;99874.04;;;23.08;49.27
61436;BME280;47304;47.456;19.160;2023-08-31T09:33:35;99874.95;;;23.17;48.73
61436;BME280;47304;47.456;19.160;2023-08-31T09:36:02;99872.71;;;23.27;48.59
61436;BME280;47304;47.456;19.160;2023-08-31T09:38:28;99869.60;;;23.40;48.70
61436;BME280;47304;47.456;19.160;2023-08-31T09:41:05;99874.63;;;23.57;47.93
61436;BME280;47304;47.456;19.160;2023-08-31T09:43:31;99879.55;;;23.73;47.36
61436;BME280;47304;47.456;19.160;2023-08-31T09:45:59;99879.85;;;23.83;46.76
61436;BME280;47304;47.456;19.160;2023-08-31T09:48:26;99880.36;;;23.86;46.36
61436;BME280;47304;47.456;19.160;2023-08-31T09:50:54;99885.23;;;23.91;46.57
61436;BME280;47304;47.456;19.160;2023-08-31T09:53:24;99885.34;;;23.95;46.09
61436;BME280;47304;47.456;19.160;2023-08-31T09:55:56;99885.93;;;24.00;46.06
61436;BME280;47304;47.456;19.160;2023-08-31T09:58:23;99886.73;;;24.10;45.54
61436;BME280;47304;47.456;19.160;2023-08-31T10:00:51;99886.91;;;24.18;44.63
61436;BME280;47304;47.456;19.160;2023-08-31T10:03:20;99890.80;;;24.35;45.03
61436;BME280;47304;47.456;19.160;2023-08-31T10:05:48;99890.48;;;24.60;44.35
61436;BME280;47304;47.456;19.160;2023-08-31T10:08:17;99888.15;;;24.76;44.12
61436;BME280;47304;47.456;19.160;2023-08-31T10:10:44;99887.04;;;25.01;43.72
61436;BME280;47304;47.456;19.160;2023-08-31T10:13:12;99890.63;;;25.30;42.69
61436;BME280;47304;47.456;19.160;2023-08-31T10:15:41;99897.53;;;25.46;42.25
61436;BME280;47304;47.456;19.160;2023-08-31T10:18:09;99897.87;;;25.67;41.80
61436;BME280;47304;47.456;19.160;2023-08-31T10:20:36;99898.05;;;25.92;41.64
61436;BME280;47304;47.456;19.160;2023-08-31T10:23:06;99892.06;;;26.14;41.28
61436;BME280;47304;47.456;19.160;2023-08-31T10:28:18;99900.84;;;26.58;39.34
61436;BME280;47304;47.456;19.160;2023-08-31T10:31:06;99898.16;;;27.01;38.71
61436;BME280;47304;47.456;19.160;2023-08-31T10:33:40;99898.02;;;27.59;38.20
61436;BME280;47304;47.456;19.160;2023-08-31T10:36:18;99902.64;;;28.16;37.44
61436;BME280;47304;47.456;19.160;2023-08-31T10:41:24;99902.19;;;28.81;36.05
61436;BME280;47304;47.456;19.160;2023-08-31T10:43:54;99906.40;;;28.58;35.73
61436;BME280;47304;47.456;19.160;2023-08-31T10:49:01;99912.60;;;27.47;36.57
61436;BME280;47304;47.456;19.160;2023-08-31T10:51:30;99918.50;;;27.03;37.80
61436;BME280;47304;47.456;19.160;2023-08-31T10:54:24;99929.11;;;26.62;38.48
61436;BME280;47304;47.456;19.160;2023-08-31T10:59:41;99930.70;;;25.77;39.93
61436;BME280;47304;47.456;19.160;2023-08-31T11:02:08;99936.34;;;25.50;40.54
61436;BME280;47304;47.456;19.160;2023-08-31T11:07:27;99941.16;;;25.05;41.07
61436;BME280;47304;47.456;19.160;2023-08-31T11:10:15;99945.30;;;24.87;41.63
61436;BME280;47304;47.456;19.160;2023-08-31T11:12:44;99946.84;;;24.74;41.58
61436;BME280;47304;47.456;19.160;2023-08-31T11:15:13;99949.79;;;24.65;42.01
61436;BME280;47304;47.456;19.160;2023-08-31T11:17:41;99953.52;;;24.48;42.23
61436;BME280;47304;47.456;19.160;2023-08-31T11:20:12;99953.36;;;24.31;42.83
61436;BME280;47304;47.456;19.160;2023-08-31T11:22:41;99950.09;;;24.26;43.46
61436;BME280;47304;47.456;19.160;2023-08-31T11:25:12;99951.11;;;24.22;43.25
61436;BME280;47304;47.456;19.160;2023-08-31T11:30:36;99960.21;;;24.19;43.27
61436;BME280;47304;47.456;19.160;2023-08-31T11:33:03;99955.07;;;24.10;43.54
61436;BME280;47304;47.456;19.160;2023-08-31T11:35:36;99954.33;;;24.07;44.48
61436;BME280;47304;47.456;19.160;2023-08-31T11:38:03;99954.67;;;24.08;44.72
61436;BME280;47304;47.456;19.160;2023-08-31T11:40:30;99953.64;;;24.10;44.84
61436;BME280;47304;47.456;19.160;2023-08-31T11:43:00;99954.87;;;24.16;45.13
61436;BME280;47304;47.456;19.160;2023-08-31T11:45:27;99955.91;;;24.22;44.87
61436;BME280;47304;47.456;19.160;2023-08-31T11:47:54;99954.83;;;24.25;44.70
61436;BME280;47304;47.456;19.160;2023-08-31T11:50:21;99952.13;;;24.25;44.84
61436;BME280;47304;47.456;19.160;2023-08-31T11:52:49;99955.06;;;24.27;44.65
61436;BME280;47304;47.456;19.160;2023-08-31T11:55:16;99952.60;;;24.24;44.44
61436;BME280;47304;47.456;19.160;2023-08-31T11:57:50;99953.38;;;24.25;44.14
61436;BME280;47304;47.456;19.160;2023-08-31T12:00:18;99953.59;;;24.22;43.53
61436;BME280;47304;47.456;19.160;2023-08-31T12:02:45;99952.30;;;24.14;43.61
61436;BME280;47304;47.456;19.160;2023-08-31T12:05:12;99952.17;;;24.16;44.03
61436;BME280;47304;47.456;19.160;2023-08-31T12:07:39;99950.30;;;24.26;44.42
61436;BME280;47304;47.456;19.160;2023-08-31T12:10:07;99947.14;;;24.39;44.18
